createdAt,value
2023-05-02T00:02:19.369Z,10.87
2023-05-02T00:04:46.106Z,10.91
2023-05-02T00:07:12.818Z,11.35
2023-05-02T00:09:39.434Z,11.02
2023-05-02T00:12:06.159Z,10.84
2023-05-02T00:14:32.964Z,10.98
2023-05-02T00:16:59.640Z,11.21
2023-05-02T00:19:26.345Z,10.31
2023-05-02T00:21:52.945Z,10.22
2023-05-02T00:24:19.966Z,10.33
2023-05-02T00:26:46.699Z,10.48
2023-05-02T00:29:13.334Z,10.70
2023-05-02T00:31:43.116Z,10.85
2023-05-02T00:34:09.917Z,10.78
2023-05-02T00:36:36.545Z,10.91
2023-05-02T00:39:03.327Z,11.24
2023-05-02T00:41:29.969Z,10.09
2023-05-02T00:43:56.616Z,10.63
2023-05-02T00:46:23.388Z,10.05
2023-05-02T00:48:50.210Z,10.36
2023-05-02T00:51:16.822Z,10.65
2023-05-02T00:53:43.810Z,10.22
2023-05-02T00:56:10.690Z,10.18
2023-05-02T00:58:39.208Z,10.71
2023-05-02T01:01:37.202Z,10.48
2023-05-02T01:04:23.623Z,10.63
2023-05-02T01:07:24.352Z,10.87
2023-05-02T01:10:13.698Z,10.71
2023-05-02T01:12:54.574Z,10.57
2023-05-02T01:15:22.837Z,10.67
2023-05-02T01:17:51.303Z,10.83
2023-05-02T01:20:22.014Z,10.81
2023-05-02T01:22:49.719Z,11.01
2023-05-02T01:25:33.144Z,10.67
2023-05-02T01:28:37.037Z,10.68
2023-05-02T01:31:05.420Z,10.86
2023-05-02T01:33:35.201Z,10.95
2023-05-02T01:36:03.573Z,10.95
2023-05-02T01:38:33.114Z,10.58
2023-05-02T01:41:02.053Z,10.53
2023-05-02T01:43:32.416Z,10.83
2023-05-02T01:46:01.190Z,10.97
2023-05-02T01:48:27.960Z,11.12
2023-05-02T01:50:57.468Z,11.05
2023-05-02T01:53:26.706Z,10.92
2023-05-02T01:55:55.263Z,10.71
2023-05-02T01:58:23.584Z,10.98
2023-05-02T02:00:51.373Z,10.89
2023-05-02T02:03:20.243Z,10.95
2023-05-02T02:05:49.357Z,10.62
2023-05-02T02:08:16.225Z,10.73
2023-05-02T02:10:46.424Z,10.66
2023-05-02T02:13:19.964Z,10.54
2023-05-02T02:15:54.032Z,10.50
2023-05-02T02:18:23.666Z,10.62
2023-05-02T02:20:51.479Z,10.57
2023-05-02T02:23:21.248Z,10.82
2023-05-02T02:25:50.745Z,10.62
2023-05-02T02:28:17.391Z,10.59
2023-05-02T02:30:44.056Z,10.59
2023-05-02T02:33:10.737Z,10.61
2023-05-02T02:35:49.900Z,10.30
2023-05-02T02:38:44.070Z,10.36
2023-05-02T02:41:22.527Z,10.34
2023-05-02T02:44:13.622Z,9.93
2023-05-02T02:47:10.585Z,10.39
2023-05-02T02:49:55.100Z,10.56
2023-05-02T02:52:32.505Z,10.00
2023-05-02T02:55:09.476Z,10.16
2023-05-02T02:58:08.042Z,10.14
2023-05-02T03:00:35.870Z,10.11
2023-05-02T03:03:02.739Z,9.63
2023-05-02T03:05:31.536Z,10.14
2023-05-02T03:07:59.712Z,9.98
2023-05-02T03:10:26.479Z,10.01
2023-05-02T03:12:53.100Z,9.74
2023-05-02T03:15:45.893Z,10.00
2023-05-02T03:18:12.842Z,10.20
2023-05-02T03:20:39.964Z,10.16
2023-05-02T03:23:06.653Z,10.08
2023-05-02T03:25:33.365Z,9.71
2023-05-02T03:28:00.134Z,9.98
2023-05-02T03:30:26.962Z,10.12
2023-05-02T03:32:53.649Z,9.64
2023-05-02T03:35:20.468Z,9.54
2023-05-02T03:37:47.408Z,9.83
2023-05-02T03:40:14.232Z,9.81
2023-05-02T03:42:42.424Z,9.84
2023-05-02T03:45:09.364Z,9.72
2023-05-02T03:47:36.258Z,9.69
2023-05-02T03:50:03.133Z,9.83
2023-05-02T03:52:29.894Z,9.82
2023-05-02T03:54:57.503Z,9.70
2023-05-02T03:57:24.137Z,9.78
2023-05-02T03:59:50.753Z,9.81
2023-05-02T04:02:17.489Z,9.86
2023-05-02T04:04:44.231Z,9.64
2023-05-02T04:07:11.275Z,9.70
2023-05-02T04:09:38.046Z,9.98
2023-05-02T04:12:04.740Z,9.86
2023-05-02T04:14:31.504Z,10.00
2023-05-02T04:16:58.150Z,9.97
2023-05-02T04:19:24.876Z,10.06
2023-05-02T04:21:51.516Z,9.62
2023-05-02T04:24:18.249Z,9.71
2023-05-02T04:26:45.179Z,9.93
2023-05-02T04:29:11.953Z,9.94
2023-05-02T04:31:38.695Z,10.05
2023-05-02T04:34:06.665Z,9.96
2023-05-02T04:36:33.558Z,9.93
2023-05-02T04:39:00.265Z,10.11
2023-05-02T04:41:27.894Z,9.87
2023-05-02T04:43:54.641Z,9.83
2023-05-02T04:46:21.293Z,9.98
2023-05-02T04:48:47.956Z,9.87
2023-05-02T04:51:16.975Z,9.81
2023-05-02T04:53:43.817Z,9.92
2023-05-02T04:56:10.434Z,9.61
2023-05-02T04:58:37.165Z,9.92
2023-05-02T05:01:03.813Z,10.03
2023-05-02T05:03:30.662Z,10.04
2023-05-02T05:05:57.404Z,10.01
2023-05-02T05:08:24.262Z,9.94
2023-05-02T05:10:51.412Z,10.01
2023-05-02T05:13:18.006Z,10.47
2023-05-02T05:15:45.018Z,10.42
2023-05-02T05:18:11.985Z,10.41
2023-05-02T05:20:38.651Z,10.37
2023-05-02T05:23:05.378Z,10.58
2023-05-02T05:25:32.040Z,10.50
2023-05-02T05:28:00.220Z,10.51
2023-05-02T05:30:26.860Z,11.07
2023-05-02T05:32:53.567Z,11.08
2023-05-02T05:35:20.241Z,11.06
2023-05-02T05:37:46.952Z,11.07
2023-05-02T05:40:13.873Z,11.48
2023-05-02T05:42:40.599Z,11.21
2023-05-02T05:45:07.815Z,11.50
2023-05-02T05:47:34.605Z,11.55
2023-05-02T05:50:01.905Z,11.88
2023-05-02T05:52:29.010Z,12.16
2023-05-02T05:54:55.909Z,12.46
2023-05-02T05:57:22.893Z,12.41
2023-05-02T05:59:49.838Z,12.41
2023-05-02T06:02:16.580Z,12.62
2023-05-02T06:04:43.265Z,13.11
2023-05-02T06:07:09.972Z,12.94
2023-05-02T06:09:36.606Z,12.93
2023-05-02T06:12:03.595Z,13.41
2023-05-02T06:14:30.222Z,12.97
2023-05-02T06:16:59.401Z,13.27
2023-05-02T06:19:26.151Z,13.37
2023-05-02T06:21:52.858Z,13.57
2023-05-02T06:24:19.584Z,13.41
2023-05-02T06:26:46.425Z,13.69
2023-05-02T06:29:13.653Z,13.95
2023-05-02T06:31:40.400Z,13.88
2023-05-02T06:34:07.038Z,14.27
2023-05-02T06:36:33.671Z,14.43
2023-05-02T06:39:00.448Z,14.49
2023-05-02T06:41:27.169Z,14.19
2023-05-02T06:43:53.826Z,14.25
2023-05-02T06:46:20.583Z,14.15
2023-05-02T06:48:47.518Z,14.14
2023-05-02T06:51:17.113Z,14.39
2023-05-02T06:53:43.785Z,14.31
2023-05-02T06:56:10.512Z,14.40
2023-05-02T06:58:37.199Z,14.40
2023-05-02T07:01:04.071Z,14.74
2023-05-02T07:03:33.441Z,14.77
2023-05-02T07:06:01.547Z,14.78
2023-05-02T07:08:28.237Z,14.84
2023-05-02T07:10:54.915Z,14.62
2023-05-02T07:13:21.558Z,14.78
2023-05-02T07:15:48.271Z,14.89
2023-05-02T07:18:14.955Z,14.85
2023-05-02T07:20:41.658Z,15.02
2023-05-02T07:23:08.529Z,15.14
2023-05-02T07:25:35.354Z,15.09
2023-05-02T07:28:02.256Z,15.52
2023-05-02T07:30:28.973Z,15.64
2023-05-02T07:32:55.660Z,15.79
2023-05-02T07:35:22.350Z,15.69
2023-05-02T07:37:49.086Z,15.78
2023-05-02T07:40:15.838Z,15.94
2023-05-02T07:42:42.494Z,16.06
2023-05-02T07:45:09.557Z,15.96
2023-05-02T07:47:36.778Z,16.04
2023-05-02T07:50:03.936Z,15.76
2023-05-02T07:52:30.731Z,15.90
2023-05-02T07:54:57.372Z,15.98
2023-05-02T07:57:24.097Z,16.37
2023-05-02T07:59:50.907Z,16.66
2023-05-02T08:02:17.782Z,16.77
2023-05-02T08:04:44.677Z,16.70
2023-05-02T08:07:11.374Z,16.82
2023-05-02T08:09:38.052Z,16.66
2023-05-02T08:12:04.686Z,17.03
2023-05-02T08:14:31.572Z,17.09
2023-05-02T08:16:59.221Z,17.44
2023-05-02T08:19:25.964Z,17.35
2023-05-02T08:21:54.404Z,17.50
2023-05-02T08:24:21.086Z,17.51
2023-05-02T08:26:47.745Z,17.61
2023-05-02T08:29:14.344Z,17.96
2023-05-02T08:31:41.432Z,18.24
2023-05-02T08:34:08.651Z,18.49
2023-05-02T08:36:35.520Z,18.23
2023-05-02T08:39:02.152Z,18.30
2023-05-02T08:41:29.746Z,18.55
2023-05-02T08:43:56.913Z,18.53
2023-05-02T08:46:24.079Z,18.35
2023-05-02T08:48:51.618Z,18.41
2023-05-02T08:53:46.314Z,18.86
2023-05-02T08:56:13.386Z,19.05
2023-05-02T08:58:41.363Z,19.16
2023-05-02T09:01:15.870Z,18.89
2023-05-02T09:03:47.728Z,18.79
2023-05-02T09:06:20.064Z,18.99
2023-05-02T09:08:48.983Z,18.98
2023-05-02T09:11:17.086Z,19.13
2023-05-02T09:13:51.507Z,19.43
2023-05-02T09:16:21.467Z,19.40
2023-05-02T09:18:51.045Z,19.43
2023-05-02T09:21:21.119Z,19.57
2023-05-02T09:23:58.570Z,19.72
2023-05-02T09:26:31.598Z,19.85
2023-05-02T09:29:00.823Z,19.94
2023-05-02T09:31:49.564Z,20.17
2023-05-02T09:34:17.589Z,20.37
2023-05-02T09:36:46.866Z,20.60
2023-05-02T09:39:15.508Z,20.71
2023-05-02T09:41:43.836Z,20.47
2023-05-02T09:44:12.001Z,20.77
2023-05-02T09:46:44.236Z,20.77
2023-05-02T09:49:11.070Z,20.83
2023-05-02T09:51:38.100Z,20.71
2023-05-02T09:54:04.843Z,20.47
2023-05-02T09:56:31.688Z,20.33
2023-05-02T09:59:16.017Z,20.22
2023-05-02T10:01:43.372Z,20.44
2023-05-02T10:04:14.932Z,20.60
2023-05-02T10:06:43.761Z,20.45
2023-05-02T10:09:11.326Z,20.56
2023-05-02T10:11:39.875Z,20.39
2023-05-02T10:14:10.232Z,20.37
2023-05-02T10:16:40.053Z,20.54
2023-05-02T10:19:12.307Z,20.58
2023-05-02T10:21:40.372Z,20.70
2023-05-02T10:24:07.434Z,20.64
2023-05-02T10:26:36.360Z,20.86
2023-05-02T10:29:03.020Z,21.01
2023-05-02T10:31:34.263Z,21.34
2023-05-02T10:34:03.323Z,21.55
2023-05-02T10:36:31.593Z,21.48
2023-05-02T10:38:58.289Z,21.63
2023-05-02T10:41:27.957Z,21.58
2023-05-02T10:43:54.803Z,21.58
2023-05-02T10:46:32.295Z,21.68
2023-05-02T10:49:09.463Z,21.59
2023-05-02T10:51:38.813Z,21.18
2023-05-02T10:54:17.827Z,21.09
2023-05-02T10:56:59.800Z,21.36
2023-05-02T10:59:28.916Z,21.62
2023-05-02T11:01:57.398Z,21.74
2023-05-02T11:04:24.636Z,21.76
2023-05-02T11:06:57.168Z,21.52
2023-05-02T11:09:23.753Z,21.98
2023-05-02T11:11:51.229Z,22.10
2023-05-02T11:14:41.119Z,22.30
2023-05-02T11:17:09.318Z,22.36
2023-05-02T11:19:38.900Z,22.59
2023-05-02T11:22:17.820Z,22.50
2023-05-02T11:24:46.088Z,22.46
2023-05-02T11:27:30.818Z,22.04
2023-05-02T11:30:04.976Z,21.80
2023-05-02T11:32:43.849Z,21.72
2023-05-02T11:35:19.914Z,21.94
2023-05-02T11:37:58.296Z,22.01
2023-05-02T11:40:26.639Z,22.33
2023-05-02T11:42:53.599Z,22.13
2023-05-02T11:45:20.552Z,22.39
2023-05-02T11:47:47.840Z,22.45
2023-05-02T11:50:15.281Z,22.49
2023-05-02T11:52:43.971Z,22.21
2023-05-02T11:55:12.070Z,22.38
2023-05-02T11:57:39.916Z,22.31
2023-05-02T12:00:07.522Z,22.41
2023-05-02T12:02:43.032Z,22.50
2023-05-02T12:05:11.995Z,22.29
2023-05-02T12:07:39.658Z,22.60
2023-05-02T12:10:08.046Z,22.46
2023-05-02T12:12:35.680Z,22.56
2023-05-02T12:15:04.963Z,22.70
2023-05-02T12:17:32.178Z,22.37
2023-05-02T12:19:59.673Z,22.41
2023-05-02T12:22:28.830Z,22.54
2023-05-02T12:24:55.593Z,22.04
2023-05-02T12:27:22.268Z,22.22
2023-05-02T12:29:49.741Z,22.73
2023-05-02T12:32:28.146Z,22.82
2023-05-02T12:34:54.823Z,22.68
2023-05-02T12:37:25.423Z,22.78
2023-05-02T12:39:52.046Z,22.92
2023-05-02T12:42:21.023Z,23.07
2023-05-02T12:44:50.265Z,23.24
2023-05-02T12:47:17.373Z,23.51
2023-05-02T12:49:55.336Z,23.39
2023-05-02T12:52:48.811Z,23.09
2023-05-02T12:55:25.768Z,22.39
2023-05-02T12:58:09.152Z,21.78
2023-05-02T13:00:43.725Z,21.89
2023-05-02T13:03:12.159Z,22.25
2023-05-02T13:05:38.934Z,22.43
2023-05-02T13:08:05.666Z,22.22
2023-05-02T13:10:32.316Z,22.32
2023-05-02T13:12:58.983Z,22.42
2023-05-02T13:15:25.789Z,22.35
2023-05-02T13:17:52.790Z,22.48
2023-05-02T13:20:19.623Z,22.53
2023-05-02T13:22:46.292Z,22.49
2023-05-02T13:25:13.007Z,22.47
2023-05-02T13:27:39.704Z,22.57
2023-05-02T13:30:09.206Z,22.54
2023-05-02T13:32:36.365Z,22.37
2023-05-02T13:35:03.453Z,22.55
2023-05-02T13:37:30.097Z,22.61
2023-05-02T13:39:56.721Z,22.50
2023-05-02T13:42:23.396Z,22.52
2023-05-02T13:44:50.059Z,22.37
2023-05-02T13:47:16.710Z,22.23
2023-05-02T13:49:43.354Z,22.17
2023-05-02T13:52:10.049Z,21.99
2023-05-02T13:54:36.733Z,22.04
2023-05-02T13:57:03.369Z,21.98
2023-05-02T13:59:30.022Z,21.98
2023-05-02T14:01:56.838Z,22.19
2023-05-02T14:04:23.722Z,21.70
2023-05-02T14:06:51.077Z,21.66
2023-05-02T14:09:17.750Z,21.82
2023-05-02T14:11:44.414Z,21.70
2023-05-02T14:14:11.082Z,21.74
2023-05-02T14:16:38.120Z,21.84
2023-05-02T14:19:05.094Z,21.90
2023-05-02T14:21:31.942Z,21.73
2023-05-02T14:23:59.294Z,21.71
2023-05-02T14:28:52.630Z,21.70
2023-05-02T14:31:19.296Z,21.87
2023-05-02T14:33:46.007Z,22.06
2023-05-02T14:36:12.650Z,22.04
2023-05-02T14:38:39.270Z,21.82
2023-05-02T14:41:06.023Z,22.13
2023-05-02T14:43:32.768Z,21.97
2023-05-02T14:45:59.403Z,21.99
2023-05-02T14:48:26.120Z,21.75
2023-05-02T14:50:52.719Z,21.65
2023-05-02T14:53:20.813Z,21.57
2023-05-02T14:55:47.465Z,21.34
2023-05-02T14:58:14.236Z,21.64
2023-05-02T15:00:40.950Z,21.27
2023-05-02T15:03:08.327Z,21.39
2023-05-02T15:05:36.291Z,21.28
2023-05-02T15:08:03.170Z,21.21
2023-05-02T15:10:29.865Z,21.37
2023-05-02T15:12:56.505Z,21.48
2023-05-02T15:15:23.101Z,21.47
2023-05-02T15:17:50.101Z,21.40
2023-05-02T15:20:17.064Z,21.57
2023-05-02T15:22:43.718Z,21.40
2023-05-02T15:25:10.311Z,21.30
2023-05-02T15:27:37.098Z,21.57
2023-05-02T15:30:04.334Z,21.41
2023-05-02T15:32:31.241Z,21.67
2023-05-02T15:34:57.897Z,21.79
2023-05-02T15:37:24.712Z,21.81
2023-05-02T15:39:51.321Z,21.57
2023-05-02T15:42:17.920Z,21.46
2023-05-02T15:44:44.640Z,21.67
2023-05-02T15:47:11.197Z,21.63
2023-05-02T15:49:38.301Z,21.77
2023-05-02T15:52:04.956Z,21.58
2023-05-02T15:54:31.543Z,21.65
2023-05-02T15:56:58.553Z,21.92
2023-05-02T15:59:25.360Z,21.82
2023-05-02T16:01:51.998Z,21.89
2023-05-02T16:04:18.827Z,21.63
2023-05-02T16:06:45.529Z,21.61
2023-05-02T16:09:12.219Z,21.39
2023-05-02T16:11:38.835Z,21.73
2023-05-02T16:14:05.457Z,21.72
2023-05-02T16:16:32.320Z,21.71
2023-05-02T16:18:59.074Z,21.73
2023-05-02T16:21:25.757Z,21.86
2023-05-02T16:23:52.474Z,21.66
2023-05-02T16:26:19.102Z,21.46
2023-05-02T16:28:45.734Z,21.21
2023-05-02T16:31:12.414Z,20.91
2023-05-02T16:33:39.422Z,21.27
2023-05-02T16:36:06.564Z,21.27
2023-05-02T16:38:33.222Z,21.26
2023-05-02T16:41:03.370Z,21.26
2023-05-02T16:43:30.044Z,21.12
2023-05-02T16:46:04.666Z,21.21
2023-05-02T16:48:31.602Z,21.10
2023-05-02T16:50:58.946Z,21.35
2023-05-02T16:53:25.849Z,21.18
2023-05-02T16:55:52.958Z,21.28
2023-05-02T16:58:19.627Z,20.40
2023-05-02T17:00:46.266Z,20.19
2023-05-02T17:03:13.067Z,20.36
2023-05-02T17:05:40.019Z,20.71
2023-05-02T17:08:08.150Z,20.20
2023-05-02T17:10:35.787Z,20.00
2023-05-02T17:13:02.433Z,19.37
2023-05-02T17:15:29.444Z,19.38
2023-05-02T17:17:56.055Z,19.67
2023-05-02T17:20:22.814Z,19.21
2023-05-02T17:22:49.474Z,19.09
2023-05-02T17:25:16.253Z,18.85
2023-05-02T17:27:43.060Z,18.71
2023-05-02T17:30:12.957Z,18.54
2023-05-02T17:32:39.555Z,18.80
2023-05-02T17:35:06.636Z,18.74
2023-05-02T17:37:33.291Z,18.77
2023-05-02T17:40:00.095Z,18.48
2023-05-02T17:42:26.985Z,18.56
2023-05-02T17:44:53.653Z,18.83
2023-05-02T17:47:20.445Z,18.45
2023-05-02T17:49:47.082Z,18.26
2023-05-02T17:52:13.756Z,17.82
2023-05-02T17:54:40.364Z,17.93
2023-05-02T17:57:06.939Z,18.04
2023-05-02T17:59:33.585Z,18.31
2023-05-02T18:02:00.257Z,18.12
2023-05-02T18:04:29.679Z,18.35
2023-05-02T18:06:56.400Z,18.16
2023-05-02T18:09:23.270Z,18.00
2023-05-02T18:11:50.015Z,18.41
2023-05-02T18:14:16.673Z,18.47
2023-05-02T18:16:43.347Z,18.47
2023-05-02T18:19:10.003Z,18.24
2023-05-02T18:21:36.622Z,17.91
2023-05-02T18:24:03.267Z,18.18
2023-05-02T18:26:29.979Z,18.49
2023-05-02T18:28:57.078Z,18.30
2023-05-02T18:31:23.816Z,18.50
2023-05-02T18:33:50.558Z,17.87
2023-05-02T18:36:17.200Z,17.80
2023-05-02T18:38:46.133Z,17.74
2023-05-02T18:41:12.764Z,17.73
2023-05-02T18:43:39.388Z,17.86
2023-05-02T18:46:07.987Z,17.87
2023-05-02T18:48:35.068Z,17.95
2023-05-02T18:51:01.678Z,17.89
2023-05-02T18:53:28.585Z,17.64
2023-05-02T18:55:55.438Z,16.96
2023-05-02T18:58:22.488Z,16.91
2023-05-02T19:00:49.267Z,17.15
2023-05-02T19:03:16.052Z,17.47
2023-05-02T19:05:43.554Z,17.57
2023-05-02T19:08:10.677Z,16.93
2023-05-02T19:10:37.386Z,16.99
2023-05-02T19:13:05.166Z,16.91
2023-05-02T19:15:33.481Z,16.44
2023-05-02T19:18:00.175Z,16.52
2023-05-02T19:20:27.847Z,16.36
2023-05-02T19:23:07.286Z,16.38
2023-05-02T19:25:42.068Z,16.76
2023-05-02T19:28:08.903Z,16.75
2023-05-02T19:30:35.508Z,16.82
2023-05-02T19:33:02.221Z,16.19
2023-05-02T19:35:28.889Z,16.25
2023-05-02T19:37:55.509Z,16.35
2023-05-02T19:40:22.134Z,16.16
2023-05-02T19:42:48.724Z,16.13
2023-05-02T19:45:15.460Z,15.86
2023-05-02T19:47:42.208Z,15.72
2023-05-02T19:50:09.543Z,15.77
2023-05-02T19:52:36.170Z,15.81
2023-05-02T19:55:03.126Z,15.73
2023-05-02T19:57:29.946Z,15.90
2023-05-02T19:59:56.731Z,15.65
2023-05-02T20:02:23.475Z,15.76
2023-05-02T20:04:50.131Z,15.81
2023-05-02T20:07:16.787Z,15.70
2023-05-02T20:09:43.408Z,16.15
2023-05-02T20:12:10.042Z,15.78
2023-05-02T20:14:36.789Z,15.52
2023-05-02T20:17:03.663Z,15.15
2023-05-02T20:19:30.412Z,15.54
2023-05-02T20:21:57.072Z,15.55
2023-05-02T20:24:23.752Z,15.34
2023-05-02T20:26:50.356Z,14.72
2023-05-02T20:29:16.979Z,14.41
2023-05-02T20:31:43.701Z,14.28
2023-05-02T20:34:10.537Z,14.22
2023-05-02T20:36:37.241Z,14.07
2023-05-02T20:39:03.885Z,14.17
2023-05-02T20:41:30.491Z,14.13
2023-05-02T20:43:57.316Z,14.38
2023-05-02T20:46:24.201Z,14.41
2023-05-02T20:48:51.761Z,14.31
2023-05-02T20:51:18.377Z,14.30
2023-05-02T20:53:45.077Z,14.47
2023-05-02T20:56:11.697Z,14.26
2023-05-02T20:58:38.401Z,14.19
2023-05-02T21:01:05.101Z,13.81
2023-05-02T21:03:31.826Z,13.78
2023-05-02T21:05:58.772Z,13.72
2023-05-02T21:08:25.414Z,13.95
2023-05-02T21:10:53.323Z,14.30
2023-05-02T21:13:19.977Z,14.18
2023-05-02T21:15:46.638Z,13.92
2023-05-02T21:18:13.504Z,13.79
2023-05-02T21:20:40.314Z,13.58
2023-05-02T21:23:07.753Z,13.37
2023-05-02T21:25:34.355Z,13.72
2023-05-02T21:28:01.294Z,13.96
2023-05-02T21:30:27.973Z,13.75
2023-05-02T21:32:54.652Z,13.75
2023-05-02T21:35:21.404Z,13.53
2023-05-02T21:37:48.073Z,13.40
2023-05-02T21:40:14.702Z,13.30
2023-05-02T21:42:41.337Z,13.30
2023-05-02T21:45:08.641Z,13.68
2023-05-02T21:47:35.377Z,13.72
2023-05-02T21:50:02.264Z,13.85
2023-05-02T21:52:29.139Z,14.09
2023-05-02T21:54:57.283Z,13.98
2023-05-02T21:57:23.968Z,14.01
2023-05-02T21:59:50.704Z,14.30
2023-05-02T22:02:17.479Z,14.28
2023-05-02T22:04:44.175Z,14.14
2023-05-02T22:07:10.811Z,14.31
2023-05-02T22:09:37.487Z,14.98
2023-05-02T22:12:04.272Z,15.02
2023-05-02T22:14:41.658Z,15.25
2023-05-02T22:17:13.307Z,13.64
2023-05-02T22:19:39.995Z,13.71
2023-05-02T22:22:06.765Z,13.91
2023-05-02T22:24:33.631Z,14.16
2023-05-02T22:27:00.244Z,13.45
2023-05-02T22:29:26.889Z,13.22
2023-05-02T22:31:53.583Z,13.20
2023-05-02T22:34:20.434Z,13.44
2023-05-02T22:36:47.180Z,13.67
2023-05-02T22:39:14.111Z,13.79
2023-05-02T22:41:41.159Z,13.60
2023-05-02T22:44:08.626Z,13.51
2023-05-02T22:46:36.489Z,13.51
2023-05-02T22:49:03.823Z,13.28
2023-05-02T22:51:30.491Z,13.52
2023-05-02T22:53:57.119Z,13.95
2023-05-02T22:56:23.884Z,13.85
2023-05-02T22:58:50.574Z,13.94
2023-05-02T23:01:17.212Z,13.90
2023-05-02T23:03:43.926Z,14.02
2023-05-02T23:06:10.608Z,14.27
2023-05-02T23:08:37.381Z,14.44
2023-05-02T23:11:04.122Z,14.19
2023-05-02T23:13:30.894Z,13.77
2023-05-02T23:15:57.660Z,13.84
2023-05-02T23:18:24.354Z,13.90
2023-05-02T23:20:51.035Z,13.93
2023-05-02T23:23:17.790Z,13.78
2023-05-02T23:25:44.496Z,13.49
2023-05-02T23:28:11.189Z,13.72
2023-05-02T23:30:41.367Z,13.49
2023-05-02T23:33:08.161Z,13.44
2023-05-02T23:35:35.588Z,13.54
2023-05-02T23:38:05.801Z,13.41
2023-05-02T23:40:35.312Z,13.93
2023-05-02T23:43:01.990Z,13.50
2023-05-02T23:45:28.697Z,13.57
2023-05-02T23:47:55.308Z,13.40
2023-05-02T23:50:22.078Z,13.28
2023-05-02T23:52:48.678Z,13.19
2023-05-02T23:55:15.316Z,13.02
2023-05-02T23:57:41.945Z,13.20
